sensor_id;sensor_type;location;lat;lon;timestamp;pressure;altitude;pressure_sealevel;temperature;humidity
44872;BME280;30602;51.060;17.226;2024-03-25T00:02:48;99981.13;;;5.01;96.81
44872;BME280;30602;51.060;17.226;2024-03-25T00:06:10;99981.92;;;4.99;96.92
44872;BME280;30602;51.060;17.226;2024-03-25T00:09:32;99980.11;;;4.97;97.11
44872;BME280;30602;51.060;17.226;2024-03-25T00:12:56;99978.06;;;4.95;97.03
44872;BME280;30602;51.060;17.226;2024-03-25T00:16:49;99975.98;;;4.97;97.51
44872;BME280;30602;51.060;17.226;2024-03-25T00:20:11;99984.23;;;5.01;96.84
44872;BME280;30602;51.060;17.226;2024-03-25T00:23:31;99981.48;;;5.00;96.60
44872;BME280;30602;51.060;17.226;2024-03-25T00:27:23;99977.11;;;5.06;96.74
44872;BME280;30602;51.060;17.226;2024-03-25T00:30:45;99971.52;;;5.09;96.19
44872;BME280;30602;51.060;17.226;2024-03-25T00:34:03;99967.95;;;5.13;96.07
44872;BME280;30602;51.060;17.226;2024-03-25T00:37:56;99965.17;;;5.19;96.20
44872;BME280;30602;51.060;17.226;2024-03-25T00:41:54;99958.41;;;5.32;96.05
44872;BME280;30602;51.060;17.226;2024-03-25T00:45:16;99958.29;;;5.39;95.92
44872;BME280;30602;51.060;17.226;2024-03-25T00:48:36;99957.46;;;5.32;95.81
44872;BME280;30602;51.060;17.226;2024-03-25T00:51:57;99947.40;;;5.23;96.25
44872;BME280;30602;51.060;17.226;2024-03-25T00:55:18;99962.13;;;5.29;96.64
44872;BME280;30602;51.060;17.226;2024-03-25T00:58:40;99966.92;;;5.29;96.57
44872;BME280;30602;51.060;17.226;2024-03-25T01:02:32;99982.57;;;5.34;97.33
44872;BME280;30602;51.060;17.226;2024-03-25T01:05:54;99986.30;;;5.37;99.86
44872;BME280;30602;51.060;17.226;2024-03-25T01:09:14;99971.83;;;5.29;100.00
44872;BME280;30602;51.060;17.226;2024-03-25T01:12:37;99974.84;;;5.12;100.00
44872;BME280;30602;51.060;17.226;2024-03-25T01:15:57;99984.09;;;5.03;100.00
44872;BME280;30602;51.060;17.226;2024-03-25T01:19:18;99978.49;;;4.83;100.00
44872;BME280;30602;51.060;17.226;2024-03-25T01:22:42;99954.84;;;4.61;100.00
44872;BME280;30602;51.060;17.226;2024-03-25T01:26:00;99966.52;;;4.54;100.00
44872;BME280;30602;51.060;17.226;2024-03-25T01:29:17;99960.71;;;4.43;100.00
44872;BME280;30602;51.060;17.226;2024-03-25T01:33:09;99957.65;;;4.42;100.00
44872;BME280;30602;51.060;17.226;2024-03-25T01:36:30;99956.98;;;4.41;100.00
44872;BME280;30602;51.060;17.226;2024-03-25T01:39:51;99959.80;;;4.51;100.00
44872;BME280;30602;51.060;17.226;2024-03-25T01:43:16;99958.02;;;4.61;100.00
44872;BME280;30602;51.060;17.226;2024-03-25T01:47:09;99959.88;;;4.58;100.00
44872;BME280;30602;51.060;17.226;2024-03-25T01:51:06;99957.81;;;4.56;100.00
44872;BME280;30602;51.060;17.226;2024-03-25T01:54:31;99956.81;;;4.54;100.00
44872;BME280;30602;51.060;17.226;2024-03-25T01:57:56;99955.64;;;4.52;100.00
44872;BME280;30602;51.060;17.226;2024-03-25T02:01:23;99955.51;;;4.50;100.00
44872;BME280;30602;51.060;17.226;2024-03-25T02:04:53;99951.38;;;4.49;100.00
44872;BME280;30602;51.060;17.226;2024-03-25T02:08:25;99940.23;;;4.42;100.00
44872;BME280;30602;51.060;17.226;2024-03-25T02:11:51;99940.86;;;4.45;100.00
44872;BME280;30602;51.060;17.226;2024-03-25T02:15:41;99938.98;;;4.46;100.00
44872;BME280;30602;51.060;17.226;2024-03-25T02:19:00;99926.09;;;4.38;100.00
44872;BME280;30602;51.060;17.226;2024-03-25T02:22:18;99931.72;;;4.43;100.00
44872;BME280;30602;51.060;17.226;2024-03-25T02:25:39;99934.27;;;4.41;100.00
44872;BME280;30602;51.060;17.226;2024-03-25T02:29:02;99933.27;;;4.43;100.00
44872;BME280;30602;51.060;17.226;2024-03-25T02:32:21;99935.52;;;4.46;100.00
44872;BME280;30602;51.060;17.226;2024-03-25T02:35:44;99935.62;;;4.46;100.00
44872;BME280;30602;51.060;17.226;2024-03-25T02:39:07;99934.46;;;4.44;100.00
44872;BME280;30602;51.060;17.226;2024-03-25T02:42:27;99937.49;;;4.47;100.00
44872;BME280;30602;51.060;17.226;2024-03-25T02:49:36;99942.96;;;4.49;100.00
44872;BME280;30602;51.060;17.226;2024-03-25T02:52:57;99940.27;;;4.47;100.00
44872;BME280;30602;51.060;17.226;2024-03-25T02:56:18;99937.43;;;4.49;100.00
44872;BME280;30602;51.060;17.226;2024-03-25T02:59:37;99938.80;;;4.50;100.00
44872;BME280;30602;51.060;17.226;2024-03-25T03:03:28;99933.70;;;4.43;100.00
44872;BME280;30602;51.060;17.226;2024-03-25T03:06:48;99943.02;;;4.50;100.00
44872;BME280;30602;51.060;17.226;2024-03-25T03:10:09;99948.84;;;4.51;100.00
44872;BME280;30602;51.060;17.226;2024-03-25T03:13:32;99950.93;;;4.48;100.00
44872;BME280;30602;51.060;17.226;2024-03-25T03:17:27;99945.98;;;4.47;100.00
44872;BME280;30602;51.060;17.226;2024-03-25T03:20:46;99947.71;;;4.47;100.00
44872;BME280;30602;51.060;17.226;2024-03-25T03:24:08;99940.46;;;4.43;100.00
44872;BME280;30602;51.060;17.226;2024-03-25T03:27:57;99945.52;;;4.51;100.00
44872;BME280;30602;51.060;17.226;2024-03-25T03:31:18;99948.29;;;4.52;100.00
44872;BME280;30602;51.060;17.226;2024-03-25T03:34:36;99954.59;;;4.49;100.00
44872;BME280;30602;51.060;17.226;2024-03-25T03:37:56;99958.39;;;4.48;100.00
44872;BME280;30602;51.060;17.226;2024-03-25T03:41:49;99963.58;;;4.48;100.00
44872;BME280;30602;51.060;17.226;2024-03-25T03:45:07;99959.83;;;4.49;100.00
44872;BME280;30602;51.060;17.226;2024-03-25T03:48:29;99955.49;;;4.54;100.00
44872;BME280;30602;51.060;17.226;2024-03-25T03:51:46;99958.64;;;4.59;100.00
44872;BME280;30602;51.060;17.226;2024-03-25T03:55:08;99963.48;;;4.59;100.00
44872;BME280;30602;51.060;17.226;2024-03-25T03:58:29;99967.51;;;4.59;100.00
44872;BME280;30602;51.060;17.226;2024-03-25T04:01:54;99969.02;;;4.57;100.00
44872;BME280;30602;51.060;17.226;2024-03-25T04:05:15;99972.46;;;4.53;100.00
44872;BME280;30602;51.060;17.226;2024-03-25T04:08:37;99977.53;;;4.52;100.00
44872;BME280;30602;51.060;17.226;2024-03-25T04:11:57;99977.88;;;4.42;100.00
44872;BME280;30602;51.060;17.226;2024-03-25T04:15:18;99981.58;;;4.38;100.00
44872;BME280;30602;51.060;17.226;2024-03-25T04:18:40;99984.28;;;4.39;100.00
44872;BME280;30602;51.060;17.226;2024-03-25T04:22:02;99975.88;;;4.46;100.00
44872;BME280;30602;51.060;17.226;2024-03-25T04:25:23;99979.71;;;4.46;100.00
44872;BME280;30602;51.060;17.226;2024-03-25T04:28:43;99979.13;;;4.46;100.00
44872;BME280;30602;51.060;17.226;2024-03-25T04:32:36;99978.69;;;4.42;100.00
44872;BME280;30602;51.060;17.226;2024-03-25T04:35:53;99974.22;;;4.46;100.00
44872;BME280;30602;51.060;17.226;2024-03-25T04:39:17;99977.08;;;4.43;100.00
44872;BME280;30602;51.060;17.226;2024-03-25T04:42:41;99976.71;;;4.38;100.00
44872;BME280;30602;51.060;17.226;2024-03-25T04:46:01;99981.34;;;4.35;100.00
44872;BME280;30602;51.060;17.226;2024-03-25T04:49:25;99981.16;;;4.32;100.00
44872;BME280;30602;51.060;17.226;2024-03-25T04:52:45;99985.16;;;4.28;100.00
44872;BME280;30602;51.060;17.226;2024-03-25T04:56:05;99987.32;;;4.34;100.00
44872;BME280;30602;51.060;17.226;2024-03-25T04:59:56;99991.60;;;4.37;100.00
44872;BME280;30602;51.060;17.226;2024-03-25T05:03:17;100000.60;;;4.36;100.00
44872;BME280;30602;51.060;17.226;2024-03-25T05:07:12;100004.95;;;4.38;100.00
44872;BME280;30602;51.060;17.226;2024-03-25T05:11:10;100007.63;;;4.46;100.00
44872;BME280;30602;51.060;17.226;2024-03-25T05:14:28;99990.12;;;4.38;100.00
44872;BME280;30602;51.060;17.226;2024-03-25T05:17:51;100008.23;;;4.58;100.00
44872;BME280;30602;51.060;17.226;2024-03-25T05:21:12;99997.62;;;4.54;100.00
44872;BME280;30602;51.060;17.226;2024-03-25T05:24:35;100006.72;;;4.67;100.00
44872;BME280;30602;51.060;17.226;2024-03-25T05:28:26;100014.38;;;4.63;100.00
44872;BME280;30602;51.060;17.226;2024-03-25T05:35:47;100019.91;;;4.67;100.00
44872;BME280;30602;51.060;17.226;2024-03-25T05:39:37;100022.64;;;4.73;100.00
44872;BME280;30602;51.060;17.226;2024-03-25T05:42:59;100020.88;;;4.77;100.00
44872;BME280;30602;51.060;17.226;2024-03-25T05:46:19;100019.57;;;4.77;100.00
44872;BME280;30602;51.060;17.226;2024-03-25T05:49:46;100025.91;;;4.83;100.00
44872;BME280;30602;51.060;17.226;2024-03-25T05:53:06;100019.34;;;4.82;100.00
44872;BME280;30602;51.060;17.226;2024-03-25T05:56:29;100035.28;;;4.89;100.00
44872;BME280;30602;51.060;17.226;2024-03-25T05:59:50;100041.38;;;4.90;100.00
44872;BME280;30602;51.060;17.226;2024-03-25T06:03:15;100045.14;;;4.80;100.00
44872;BME280;30602;51.060;17.226;2024-03-25T06:06:34;100061.26;;;4.74;100.00
44872;BME280;30602;51.060;17.226;2024-03-25T06:10:26;100071.96;;;4.70;100.00
44872;BME280;30602;51.060;17.226;2024-03-25T06:14:16;100080.98;;;4.65;100.00
44872;BME280;30602;51.060;17.226;2024-03-25T06:17:34;100082.76;;;4.55;100.00
44872;BME280;30602;51.060;17.226;2024-03-25T06:20:53;100083.40;;;4.50;100.00
44872;BME280;30602;51.060;17.226;2024-03-25T06:24:14;100084.50;;;4.49;100.00
44872;BME280;30602;51.060;17.226;2024-03-25T06:27:34;100084.73;;;4.43;100.00
44872;BME280;30602;51.060;17.226;2024-03-25T06:30:54;100089.47;;;4.49;100.00
44872;BME280;30602;51.060;17.226;2024-03-25T06:34:23;100089.96;;;4.46;100.00
44872;BME280;30602;51.060;17.226;2024-03-25T06:37:41;100094.54;;;4.49;100.00
44872;BME280;30602;51.060;17.226;2024-03-25T06:41:04;100103.02;;;4.50;100.00
44872;BME280;30602;51.060;17.226;2024-03-25T06:44:59;100116.18;;;4.41;100.00
44872;BME280;30602;51.060;17.226;2024-03-25T06:48:51;100127.38;;;4.49;100.00
44872;BME280;30602;51.060;17.226;2024-03-25T06:52:14;100133.33;;;4.47;100.00
44872;BME280;30602;51.060;17.226;2024-03-25T06:56:07;100139.63;;;4.40;100.00
44872;BME280;30602;51.060;17.226;2024-03-25T06:59:25;100146.69;;;4.40;100.00
44872;BME280;30602;51.060;17.226;2024-03-25T07:03:21;100149.16;;;4.36;100.00
44872;BME280;30602;51.060;17.226;2024-03-25T07:07:11;100154.88;;;4.28;100.00
44872;BME280;30602;51.060;17.226;2024-03-25T07:10:29;100158.25;;;4.45;100.00
44872;BME280;30602;51.060;17.226;2024-03-25T07:14:24;100158.68;;;4.52;100.00
44872;BME280;30602;51.060;17.226;2024-03-25T07:17:51;100164.28;;;4.64;100.00
44872;BME280;30602;51.060;17.226;2024-03-25T07:21:45;100168.48;;;4.76;100.00
44872;BME280;30602;51.060;17.226;2024-03-25T07:25:07;100171.59;;;4.68;100.00
44872;BME280;30602;51.060;17.226;2024-03-25T07:28:28;100177.35;;;4.71;100.00
44872;BME280;30602;51.060;17.226;2024-03-25T07:31:53;100177.93;;;4.79;100.00
44872;BME280;30602;51.060;17.226;2024-03-25T07:35:17;100183.29;;;4.81;100.00
44872;BME280;30602;51.060;17.226;2024-03-25T07:39:07;100182.45;;;4.86;100.00
44872;BME280;30602;51.060;17.226;2024-03-25T07:42:27;100185.48;;;4.91;100.00
44872;BME280;30602;51.060;17.226;2024-03-25T07:46:25;100189.21;;;4.97;100.00
44872;BME280;30602;51.060;17.226;2024-03-25T07:50:15;100196.59;;;4.97;100.00
44872;BME280;30602;51.060;17.226;2024-03-25T07:54:07;100194.34;;;5.06;100.00
44872;BME280;30602;51.060;17.226;2024-03-25T07:57:40;100202.87;;;5.20;100.00
44872;BME280;30602;51.060;17.226;2024-03-25T08:01:00;100204.55;;;5.19;100.00
44872;BME280;30602;51.060;17.226;2024-03-25T08:04:23;100206.84;;;5.32;100.00
44872;BME280;30602;51.060;17.226;2024-03-25T08:07:45;100214.49;;;5.58;100.00
44872;BME280;30602;51.060;17.226;2024-03-25T08:11:06;100214.82;;;5.54;100.00
44872;BME280;30602;51.060;17.226;2024-03-25T08:14:28;100234.38;;;5.51;100.00
44872;BME280;30602;51.060;17.226;2024-03-25T08:17:49;100232.32;;;5.53;100.00
44872;BME280;30602;51.060;17.226;2024-03-25T08:21:10;100232.97;;;5.44;100.00
44872;BME280;30602;51.060;17.226;2024-03-25T08:25:03;100233.76;;;5.38;100.00
44872;BME280;30602;51.060;17.226;2024-03-25T08:28:56;100242.13;;;5.51;100.00
44872;BME280;30602;51.060;17.226;2024-03-25T08:32:46;100244.44;;;5.46;100.00
44872;BME280;30602;51.060;17.226;2024-03-25T08:36:38;100251.40;;;5.42;100.00
44872;BME280;30602;51.060;17.226;2024-03-25T08:39:56;100257.26;;;5.25;100.00
44872;BME280;30602;51.060;17.226;2024-03-25T08:43:15;100259.99;;;5.30;100.00
44872;BME280;30602;51.060;17.226;2024-03-25T08:46:34;100266.89;;;5.26;100.00
44872;BME280;30602;51.060;17.226;2024-03-25T08:49:56;100272.26;;;5.20;100.00
44872;BME280;30602;51.060;17.226;2024-03-25T08:53:20;100275.51;;;5.17;100.00
44872;BME280;30602;51.060;17.226;2024-03-25T08:57:14;100275.71;;;5.15;100.00
44872;BME280;30602;51.060;17.226;2024-03-25T09:01:05;100277.95;;;5.30;100.00
44872;BME280;30602;51.060;17.226;2024-03-25T09:04:26;100278.82;;;5.29;100.00
44872;BME280;30602;51.060;17.226;2024-03-25T09:08:17;100279.14;;;5.37;100.00
44872;BME280;30602;51.060;17.226;2024-03-25T09:11:42;100286.80;;;5.39;100.00
44872;BME280;30602;51.060;17.226;2024-03-25T09:15:04;100289.37;;;5.38;100.00
44872;BME280;30602;51.060;17.226;2024-03-25T09:18:23;100293.23;;;5.29;100.00
44872;BME280;30602;51.060;17.226;2024-03-25T09:22:17;100300.77;;;5.21;100.00
44872;BME280;30602;51.060;17.226;2024-03-25T09:25:38;100316.69;;;5.14;100.00
44872;BME280;30602;51.060;17.226;2024-03-25T09:29:38;100321.47;;;5.04;100.00
44872;BME280;30602;51.060;17.226;2024-03-25T09:32:56;100326.69;;;4.99;100.00
44872;BME280;30602;51.060;17.226;2024-03-25T09:36:21;100324.63;;;4.97;100.00
44872;BME280;30602;51.060;17.226;2024-03-25T09:40:12;100326.60;;;5.02;100.00
44872;BME280;30602;51.060;17.226;2024-03-25T09:44:06;100329.87;;;5.06;100.00
44872;BME280;30602;51.060;17.226;2024-03-25T09:47:24;100325.75;;;5.18;100.00
44872;BME280;30602;51.060;17.226;2024-03-25T09:50:49;100326.26;;;5.25;100.00
44872;BME280;30602;51.060;17.226;2024-03-25T09:54:12;100329.93;;;5.41;100.00
44872;BME280;30602;51.060;17.226;2024-03-25T09:57:38;100335.95;;;5.61;100.00
44872;BME280;30602;51.060;17.226;2024-03-25T10:01:03;100335.56;;;5.74;100.00
44872;BME280;30602;51.060;17.226;2024-03-25T10:04:57;100335.64;;;5.81;100.00
44872;BME280;30602;51.060;17.226;2024-03-25T10:08:21;100337.74;;;5.84;100.00
44872;BME280;30602;51.060;17.226;2024-03-25T10:11:41;100344.99;;;5.84;100.00
44872;BME280;30602;51.060;17.226;2024-03-25T10:15:03;100349.74;;;5.80;100.00
44872;BME280;30602;51.060;17.226;2024-03-25T10:18:24;100354.94;;;5.81;100.00
44872;BME280;30602;51.060;17.226;2024-03-25T10:22:18;100356.41;;;5.75;100.00
44872;BME280;30602;51.060;17.226;2024-03-25T10:25:39;100362.41;;;5.77;100.00
44872;BME280;30602;51.060;17.226;2024-03-25T10:29:33;100366.07;;;5.77;100.00
44872;BME280;30602;51.060;17.226;2024-03-25T10:33:05;100369.26;;;5.67;100.00
44872;BME280;30602;51.060;17.226;2024-03-25T10:36:25;100365.73;;;5.72;100.00
44872;BME280;30602;51.060;17.226;2024-03-25T10:39:50;100371.96;;;5.69;100.00
44872;BME280;30602;51.060;17.226;2024-03-25T10:43:20;100369.53;;;5.79;100.00
44872;BME280;30602;51.060;17.226;2024-03-25T10:46:40;100374.63;;;5.73;100.00
44872;BME280;30602;51.060;17.226;2024-03-25T10:50:07;100374.71;;;5.61;100.00
44872;BME280;30602;51.060;17.226;2024-03-25T10:53:30;100380.60;;;5.65;100.00
44872;BME280;30602;51.060;17.226;2024-03-25T10:56:52;100384.12;;;5.66;100.00
44872;BME280;30602;51.060;17.226;2024-03-25T11:00:16;100383.96;;;5.69;100.00
44872;BME280;30602;51.060;17.226;2024-03-25T11:03:41;100391.70;;;5.79;100.00
44872;BME280;30602;51.060;17.226;2024-03-25T11:07:10;100383.78;;;5.76;100.00
44872;BME280;30602;51.060;17.226;2024-03-25T11:10:30;100370.37;;;5.81;100.00
44872;BME280;30602;51.060;17.226;2024-03-25T11:13:51;100389.95;;;6.06;100.00
44872;BME280;30602;51.060;17.226;2024-03-25T11:17:15;100383.90;;;5.97;100.00
44872;BME280;30602;51.060;17.226;2024-03-25T11:20:37;100375.79;;;5.88;100.00
44872;BME280;30602;51.060;17.226;2024-03-25T11:24:06;100386.71;;;6.05;100.00
44872;BME280;30602;51.060;17.226;2024-03-25T11:27:27;100390.30;;;6.02;100.00
44872;BME280;30602;51.060;17.226;2024-03-25T11:30:48;100393.59;;;5.96;100.00
44872;BME280;30602;51.060;17.226;2024-03-25T11:34:07;100380.17;;;5.87;100.00
44872;BME280;30602;51.060;17.226;2024-03-25T11:37:28;100396.35;;;5.82;100.00
44872;BME280;30602;51.060;17.226;2024-03-25T11:40:48;100397.88;;;5.60;100.00
44872;BME280;30602;51.060;17.226;2024-03-25T11:44:11;100389.09;;;5.38;100.00
44872;BME280;30602;51.060;17.226;2024-03-25T11:47:33;100398.47;;;5.45;100.00
44872;BME280;30602;51.060;17.226;2024-03-25T11:50:52;100393.27;;;5.72;100.00
44872;BME280;30602;51.060;17.226;2024-03-25T11:54:13;100384.59;;;6.00;100.00
44872;BME280;30602;51.060;17.226;2024-03-25T11:57:36;100384.68;;;6.20;100.00
44872;BME280;30602;51.060;17.226;2024-03-25T12:00:59;100382.77;;;6.48;100.00
44872;BME280;30602;51.060;17.226;2024-03-25T12:04:23;100385.66;;;6.50;100.00
44872;BME280;30602;51.060;17.226;2024-03-25T12:07:45;100386.19;;;6.47;100.00
44872;BME280;30602;51.060;17.226;2024-03-25T12:11:08;100393.77;;;6.46;100.00
44872;BME280;30602;51.060;17.226;2024-03-25T12:14:35;100397.29;;;6.31;100.00
44872;BME280;30602;51.060;17.226;2024-03-25T12:17:56;100399.65;;;6.27;100.00
44872;BME280;30602;51.060;17.226;2024-03-25T12:21:15;100396.71;;;6.26;100.00
44872;BME280;30602;51.060;17.226;2024-03-25T12:24:40;100393.89;;;6.45;100.00
44872;BME280;30602;51.060;17.226;2024-03-25T12:28:01;100389.97;;;6.62;100.00
44872;BME280;30602;51.060;17.226;2024-03-25T12:31:26;100392.16;;;6.72;100.00
44872;BME280;30602;51.060;17.226;2024-03-25T12:34:47;100386.77;;;6.84;100.00
44872;BME280;30602;51.060;17.226;2024-03-25T12:38:08;100388.11;;;6.90;100.00
44872;BME280;30602;51.060;17.226;2024-03-25T12:41:32;100387.46;;;7.10;100.00
44872;BME280;30602;51.060;17.226;2024-03-25T12:44:57;100385.18;;;7.30;100.00
44872;BME280;30602;51.060;17.226;2024-03-25T12:48:15;100395.59;;;7.22;100.00
44872;BME280;30602;51.060;17.226;2024-03-25T12:51:35;100388.83;;;7.45;100.00
44872;BME280;30602;51.060;17.226;2024-03-25T12:54:56;100383.21;;;7.47;100.00
44872;BME280;30602;51.060;17.226;2024-03-25T12:58:25;100389.70;;;7.18;100.00
44872;BME280;30602;51.060;17.226;2024-03-25T13:02:16;100396.22;;;7.04;100.00
44872;BME280;30602;51.060;17.226;2024-03-25T13:05:44;100397.88;;;7.01;100.00
44872;BME280;30602;51.060;17.226;2024-03-25T13:09:35;100398.59;;;7.07;100.00
44872;BME280;30602;51.060;17.226;2024-03-25T13:12:53;100397.05;;;7.24;100.00
44872;BME280;30602;51.060;17.226;2024-03-25T13:16:12;100397.91;;;7.33;100.00
44872;BME280;30602;51.060;17.226;2024-03-25T13:19:36;100396.77;;;7.25;100.00
44872;BME280;30602;51.060;17.226;2024-03-25T13:22:59;100400.34;;;7.36;100.00
44872;BME280;30602;51.060;17.226;2024-03-25T13:26:15;100394.89;;;7.33;100.00
44872;BME280;30602;51.060;17.226;2024-03-25T13:29:39;100401.37;;;7.46;100.00
44872;BME280;30602;51.060;17.226;2024-03-25T13:32:58;100396.41;;;7.49;99.41
44872;BME280;30602;51.060;17.226;2024-03-25T13:36:20;100398.68;;;7.56;98.57
44872;BME280;30602;51.060;17.226;2024-03-25T13:39:42;100398.17;;;7.73;98.43
44872;BME280;30602;51.060;17.226;2024-03-25T13:43:06;100396.19;;;7.92;97.57
44872;BME280;30602;51.060;17.226;2024-03-25T13:46:28;100392.80;;;7.83;93.33
44872;BME280;30602;51.060;17.226;2024-03-25T13:49:46;100400.60;;;7.81;94.63
44872;BME280;30602;51.060;17.226;2024-03-25T13:53:04;100400.77;;;7.82;95.08
44872;BME280;30602;51.060;17.226;2024-03-25T13:56:25;100398.39;;;7.93;95.25
44872;BME280;30602;51.060;17.226;2024-03-25T13:59:45;100403.67;;;8.07;93.14
44872;BME280;30602;51.060;17.226;2024-03-25T14:03:08;100406.47;;;7.96;91.17
44872;BME280;30602;51.060;17.226;2024-03-25T14:06:29;100415.04;;;7.74;91.75
44872;BME280;30602;51.060;17.226;2024-03-25T14:09:50;100417.96;;;7.55;91.44
44872;BME280;30602;51.060;17.226;2024-03-25T14:13:15;100422.04;;;7.45;92.36
44872;BME280;30602;51.060;17.226;2024-03-25T14:16:36;100424.21;;;7.39;93.06
44872;BME280;30602;51.060;17.226;2024-03-25T14:19:56;100432.55;;;7.42;94.14
44872;BME280;30602;51.060;17.226;2024-03-25T14:23:15;100428.40;;;7.35;94.54
44872;BME280;30602;51.060;17.226;2024-03-25T14:26:38;100436.02;;;7.29;94.86
44872;BME280;30602;51.060;17.226;2024-03-25T14:30:00;100445.95;;;7.18;95.46
44872;BME280;30602;51.060;17.226;2024-03-25T14:33:22;100465.08;;;7.11;96.83
44872;BME280;30602;51.060;17.226;2024-03-25T14:36:41;100465.42;;;6.83;99.88
44872;BME280;30602;51.060;17.226;2024-03-25T14:40:02;100468.99;;;6.65;100.00
44872;BME280;30602;51.060;17.226;2024-03-25T14:43:21;100468.70;;;6.49;100.00
44872;BME280;30602;51.060;17.226;2024-03-25T14:46:40;100465.70;;;6.59;100.00
44872;BME280;30602;51.060;17.226;2024-03-25T14:50:30;100462.50;;;6.70;100.00
44872;BME280;30602;51.060;17.226;2024-03-25T14:53:57;100457.09;;;6.94;100.00
44872;BME280;30602;51.060;17.226;2024-03-25T14:57:15;100461.09;;;6.99;100.00
44872;BME280;30602;51.060;17.226;2024-03-25T15:00:38;100460.63;;;6.91;100.00
44872;BME280;30602;51.060;17.226;2024-03-25T15:03:59;100464.40;;;6.90;100.00
44872;BME280;30602;51.060;17.226;2024-03-25T15:07:22;100465.69;;;6.79;100.00
44872;BME280;30602;51.060;17.226;2024-03-25T15:10:48;100466.69;;;6.71;100.00
44872;BME280;30602;51.060;17.226;2024-03-25T15:14:08;100469.70;;;6.66;100.00
44872;BME280;30602;51.060;17.226;2024-03-25T15:17:32;100470.20;;;6.67;100.00
44872;BME280;30602;51.060;17.226;2024-03-25T15:21:00;100467.48;;;6.62;100.00
44872;BME280;30602;51.060;17.226;2024-03-25T15:24:21;100469.50;;;6.60;100.00
44872;BME280;30602;51.060;17.226;2024-03-25T15:27:41;100466.05;;;6.62;100.00
44872;BME280;30602;51.060;17.226;2024-03-25T15:31:02;100463.30;;;6.75;100.00
44872;BME280;30602;51.060;17.226;2024-03-25T15:34:20;100470.50;;;6.80;100.00
44872;BME280;30602;51.060;17.226;2024-03-25T15:37:43;100466.77;;;6.91;100.00
44872;BME280;30602;51.060;17.226;2024-03-25T15:41:03;100417.87;;;6.53;100.00
44872;BME280;30602;51.060;17.226;2024-03-25T15:44:25;100477.91;;;6.89;100.00
44872;BME280;30602;51.060;17.226;2024-03-25T15:47:48;100475.74;;;6.92;100.00
44872;BME280;30602;51.060;17.226;2024-03-25T15:51:10;100488.58;;;7.07;100.00
44872;BME280;30602;51.060;17.226;2024-03-25T15:54:28;100486.15;;;7.19;100.00
44872;BME280;30602;51.060;17.226;2024-03-25T15:57:50;100487.39;;;7.15;96.11
44872;BME280;30602;51.060;17.226;2024-03-25T16:01:14;100488.93;;;7.11;95.42
44872;BME280;30602;51.060;17.226;2024-03-25T16:04:36;100486.48;;;7.17;96.12
44872;BME280;30602;51.060;17.226;2024-03-25T16:07:56;100490.51;;;7.24;97.09
44872;BME280;30602;51.060;17.226;2024-03-25T16:11:18;100490.89;;;7.26;96.57
44872;BME280;30602;51.060;17.226;2024-03-25T16:14:40;100498.40;;;7.17;96.24
44872;BME280;30602;51.060;17.226;2024-03-25T16:18:06;100498.12;;;7.12;96.48
44872;BME280;30602;51.060;17.226;2024-03-25T16:21:26;100504.86;;;7.06;95.22
44872;BME280;30602;51.060;17.226;2024-03-25T16:24:44;100502.28;;;7.01;94.34
44872;BME280;30602;51.060;17.226;2024-03-25T16:28:06;100505.92;;;6.98;93.01
44872;BME280;30602;51.060;17.226;2024-03-25T16:31:27;100510.95;;;6.84;92.87
44872;BME280;30602;51.060;17.226;2024-03-25T16:34:47;100515.59;;;6.84;93.56
44872;BME280;30602;51.060;17.226;2024-03-25T16:38:06;100518.58;;;6.78;93.29
44872;BME280;30602;51.060;17.226;2024-03-25T16:41:25;100520.93;;;6.75;93.60
44872;BME280;30602;51.060;17.226;2024-03-25T16:44:44;100523.87;;;6.80;94.22
44872;BME280;30602;51.060;17.226;2024-03-25T16:48:07;100524.52;;;6.78;94.61
44872;BME280;30602;51.060;17.226;2024-03-25T16:51:59;100526.64;;;6.71;94.57
44872;BME280;30602;51.060;17.226;2024-03-25T16:56:00;100529.18;;;6.64;94.38
44872;BME280;30602;51.060;17.226;2024-03-25T16:59:24;100530.95;;;6.50;95.23
44872;BME280;30602;51.060;17.226;2024-03-25T17:02:43;100538.86;;;6.41;95.56
44872;BME280;30602;51.060;17.226;2024-03-25T17:06:01;100551.66;;;6.37;96.25
44872;BME280;30602;51.060;17.226;2024-03-25T17:09:29;100566.91;;;6.32;96.75
44872;BME280;30602;51.060;17.226;2024-03-25T17:12:50;100581.08;;;6.21;96.73
44872;BME280;30602;51.060;17.226;2024-03-25T17:16:12;100593.75;;;6.06;96.66
44872;BME280;30602;51.060;17.226;2024-03-25T17:19:34;100590.03;;;5.87;97.92
44872;BME280;30602;51.060;17.226;2024-03-25T17:22:52;100589.02;;;5.66;98.60
44872;BME280;30602;51.060;17.226;2024-03-25T17:26:10;100576.98;;;5.45;99.60
44872;BME280;30602;51.060;17.226;2024-03-25T17:29:30;100593.80;;;5.44;100.00
44872;BME280;30602;51.060;17.226;2024-03-25T17:32:50;100600.79;;;5.36;100.00
44872;BME280;30602;51.060;17.226;2024-03-25T17:36:13;100597.16;;;5.26;100.00
44872;BME280;30602;51.060;17.226;2024-03-25T17:39:37;100587.41;;;5.11;100.00
44872;BME280;30602;51.060;17.226;2024-03-25T17:43:08;100598.04;;;5.17;100.00
44872;BME280;30602;51.060;17.226;2024-03-25T17:46:37;100583.27;;;5.09;100.00
44872;BME280;30602;51.060;17.226;2024-03-25T17:50:02;100595.27;;;5.21;100.00
44872;BME280;30602;51.060;17.226;2024-03-25T17:53:31;100593.15;;;5.29;100.00
44872;BME280;30602;51.060;17.226;2024-03-25T17:56:49;100594.40;;;5.21;100.00
44872;BME280;30602;51.060;17.226;2024-03-25T18:00:08;100599.61;;;5.18;100.00
44872;BME280;30602;51.060;17.226;2024-03-25T18:03:27;100600.53;;;5.25;100.00